Trans Future 10 — 3FEN2 — position and weather

sailwx.info

Track history (hours):
 
Tides and Currents Weather Stations Pressure Air Temp Water Temp Dewpoint Dewpoint Depression Visibility Wind Speed Wind Dir Waves Ship Positions

Trans Future 10

Last reported at 2017-Dec-09 17:24 UTC. Time now 2017-Dec-12 19:46 UTC.
Position N 23°33' E 118°16'.

Length 166 m; draft 6.5 m.

Type: Cargo ship. MMSI: 356143000.

Date/timePositionNaut miles runAvg speedWind from/ knotsBaromVisibWave heightAir tempDewpointWater temp
2017-Dec-09 17:24N 23°33' E 118°16'1 0.6
2017-Dec-09 14:55N 23°35' E 118°17'15017.3
2017-Dec-09 06:13N 24°55' E 120°36'520.7
2017-Dec-09 06:00N 24°57' E 120°41'1020.6
2017-Dec-09 05:30N 25°03' E 120°50'1020.8
2017-Dec-09 05:01N 25°08' E 120°60'1121.0
2017-Dec-09 04:30N 25°12' E 121°11'816.9
2017-Dec-09 04:00N 25°10' E 121°20'4 6.6
2017-Dec-09 03:28N 25°10' E 121°24'0 0.0
2017-Dec-09 02:58N 25°10' E 121°24'0 0.0
2017-Dec-09 02:25N 25°10' E 121°24'0 0.0
2017-Dec-09 01:58N 25°10' E 121°24'0 0.0
2017-Dec-09 01:28N 25°10' E 121°24'0 0.0
2017-Dec-09 00:58N 25°10' E 121°24'0 0.0
2017-Dec-09 00:28N 25°10' E 121°24'0 0.0
2017-Dec-08 23:58N 25°10' E 121°24'0 0.0
2017-Dec-08 23:22N 25°10' E 121°24'0 0.0
2017-Dec-08 22:40N 25°10' E 121°24'0 0.0
2017-Dec-08 22:28N 25°10' E 121°24'0 0.0
2017-Dec-08 22:00N 25°10' E 121°24'2 3.9
2017-Dec-08 21:30N 25°09' E 121°22'712.3
2017-Dec-08 20:58N 25°14' E 121°16'812.4
2017-Dec-08 20:19N 25°21' E 121°20'517.4
2017-Dec-08 20:00N 25°26' E 121°23'917.4
2017-Dec-08 19:30N 25°32' E 121°29'918.2
2017-Dec-08 19:00N 25°39' E 121°35'64017.9
2017-Dec-07 07:10N 33°38' E 129°44'517.9
2017-Dec-07 06:53N 33°40' E 129°50'718.3
2017-Dec-07 06:30N 33°42' E 129°58'918.1
2017-Dec-07 06:00N 33°44' E 130°08'714.7
2017-Dec-07 05:30N 33°41' E 130°16'612.0
2017-Dec-07 05:01N 33°39' E 130°23'1 2.7
2017-Dec-07 04:29N 33°39' E 130°24'0 0.0
2017-Dec-07 03:59N 33°39' E 130°24'0 0.0
2017-Dec-07 03:29N 33°39' E 130°24'0 0.0
2017-Dec-07 02:59N 33°39' E 130°24'0 0.0
2017-Dec-07 02:29N 33°39' E 130°24'0 0.0
2017-Dec-07 01:59N 33°39' E 130°24'0 0.0
2017-Dec-07 01:29N 33°39' E 130°24'0 0.0
2017-Dec-07 00:59N 33°39' E 130°24'0 0.0
2017-Dec-07 00:29N 33°39' E 130°24'0 0.0
2017-Dec-06 23:56N 33°39' E 130°24'0 0.0
2017-Dec-06 23:29N 33°39' E 130°24'0 0.0
2017-Dec-06 22:59N 33°39' E 130°24'0 0.1
2017-Dec-06 22:26N 33°39' E 130°24'2 4.4
2017-Dec-06 22:01N 33°39' E 130°22'5 9.1
2017-Dec-06 21:31N 33°39' E 130°17'0 0.7
2017-Dec-06 20:56N 33°39' E 130°16'  
2017-Dec-04 10:30N 34°51' E 139°17'815.5
2017-Dec-04 09:58N 34°55' E 139°26'714.9
2017-Dec-04 09:30N 34°58' E 139°33'815.9
2017-Dec-04 09:00N 35°04' E 139°40'815.2
2017-Dec-04 08:30N 35°10' E 139°45'611.2
2017-Dec-04 08:01N 35°16' E 139°46'612.5
2017-Dec-04 07:30N 35°22' E 139°42'611.1
2017-Dec-04 07:00N 35°27' E 139°41'0 0.4
2017-Dec-04 06:27N 35°27' E 139°41'0 0.0
2017-Dec-04 05:58N 35°27' E 139°41'0 0.0
2017-Dec-04 05:31N 35°27' E 139°41'0 0.0
2017-Dec-04 04:58N 35°27' E 139°41'0 0.0
2017-Dec-04 04:27N 35°27' E 139°41'0 0.0
2017-Dec-04 04:01N 35°27' E 139°41'0 0.0
2017-Dec-04 03:30N 35°27' E 139°41'0 0.0
2017-Dec-04 03:00N 35°27' E 139°41'0 0.0
2017-Dec-04 02:31N 35°27' E 139°41'0 0.0
2017-Dec-04 02:00N 35°27' E 139°41'0 0.0
2017-Dec-04 01:31N 35°27' E 139°41'0 0.0
2017-Dec-04 00:58N 35°27' E 139°41'0 0.0
2017-Dec-04 00:30N 35°27' E 139°41'0 0.0
2017-Dec-04 00:00N 35°27' E 139°41'0 0.0
2017-Dec-03 23:30N 35°27' E 139°41'0 0.0
2017-Dec-03 22:57N 35°27' E 139°41'0 0.0
2017-Dec-03 22:31N 35°27' E 139°41'0 1.0
2017-Dec-03 22:00N 35°27' E 139°42'2 3.7
2017-Dec-03 21:30N 35°25' E 139°43'0 0.2
2017-Dec-03 20:58N 35°25' E 139°43'0 0.1
2017-Dec-03 20:28N 35°25' E 139°43'0 0.0
2017-Dec-03 20:01N 35°25' E 139°43'0 0.0
2017-Dec-03 19:30N 35°25' E 139°43'0 0.1
2017-Dec-03 19:00N 35°25' E 139°43'0 0.0
2017-Dec-03 18:28N 35°25' E 139°43'0 0.1
2017-Dec-03 18:00N 35°25' E 139°43'0 0.1
2017-Dec-03 17:30N 35°25' E 139°43'0 0.0
2017-Dec-03 17:01N 35°25' E 139°43'0 0.0
2017-Dec-03 16:31N 35°25' E 139°43'0 0.0
2017-Dec-03 16:00N 35°25' E 139°43'0 0.0
2017-Dec-03 15:31N 35°25' E 139°43'0 0.0
2017-Dec-03 14:58N 35°25' E 139°43'0 0.0
2017-Dec-03 14:31N 35°25' E 139°43'0 0.0
2017-Dec-03 13:58N 35°25' E 139°43'0 0.0
2017-Dec-03 13:28N 35°25' E 139°43'0 0.0
2017-Dec-03 13:01N 35°25' E 139°43'0 0.0
2017-Dec-03 12:30N 35°25' E 139°43'0 0.0
2017-Dec-03 12:01N 35°25' E 139°43'0 0.0
2017-Dec-03 11:30N 35°25' E 139°43'0 0.0
2017-Dec-03 11:01N 35°25' E 139°43'0 0.0
2017-Dec-03 10:31N 35°25' E 139°43'0 0.0
2017-Dec-03 09:58N 35°25' E 139°43'0 0.0
2017-Dec-03 09:27N 35°25' E 139°43'0 0.0
2017-Dec-03 09:00N 35°25' E 139°43'0 0.0
2017-Dec-03 08:31N 35°25' E 139°43'0 0.0
2017-Dec-03 08:00N 35°25' E 139°43'0 0.0
2017-Dec-03 07:31N 35°25' E 139°43'0 0.0
2017-Dec-03 07:00N 35°25' E 139°43'0 0.0
2017-Dec-03 06:28N 35°25' E 139°43'0 0.0
2017-Dec-03 06:00N 35°25' E 139°43'0 0.0
2017-Dec-03 05:30N 35°25' E 139°43'0 0.0
2017-Dec-03 05:00N 35°25' E 139°43'0 0.0
2017-Dec-03 04:30N 35°25' E 139°43'0 0.0
2017-Dec-03 04:00N 35°25' E 139°43'0 0.0
2017-Dec-03 03:30N 35°25' E 139°43'0 0.0
2017-Dec-03 03:00N 35°25' E 139°43'0 0.0
2017-Dec-03 02:30N 35°25' E 139°43'0 0.0
2017-Dec-03 02:01N 35°25' E 139°43'0 0.0
2017-Dec-03 01:30N 35°25' E 139°43'0 0.0
2017-Dec-03 01:00N 35°25' E 139°43'0 0.0
2017-Dec-03 00:31N 35°25' E 139°43'0 0.1
2017-Dec-03 00:00N 35°25' E 139°43'0 0.0
2017-Dec-02 23:31N 35°25' E 139°43'0 0.1
2017-Dec-02 23:00N 35°25' E 139°43'0 0.0
2017-Dec-02 22:30N 35°25' E 139°43'0 0.0
2017-Dec-02 22:00N 35°25' E 139°43'0 0.0
2017-Dec-02 21:31N 35°25' E 139°43'0 0.0
2017-Dec-02 21:00N 35°25' E 139°43'0 0.0
2017-Dec-02 20:30N 35°25' E 139°43'0 0.0
2017-Dec-02 20:00N 35°25' E 139°43'0 0.0
2017-Dec-02 19:30N 35°25' E 139°43'0 0.0
2017-Dec-02 19:00N 35°25' E 139°43'0 0.0
2017-Dec-02 18:30N 35°25' E 139°43'0 0.0
2017-Dec-02 18:01N 35°25' E 139°43'0 0.0
2017-Dec-02 17:30N 35°25' E 139°43'0 0.0
2017-Dec-02 17:00N 35°25' E 139°43'0 0.0
2017-Dec-02 16:30N 35°25' E 139°43'0 0.0
2017-Dec-02 16:01N 35°25' E 139°43'0 0.0
2017-Dec-02 15:30N 35°25' E 139°43'0 0.0
2017-Dec-02 15:00N 35°25' E 139°43'0 0.0
2017-Dec-02 14:30N 35°25' E 139°43'0 0.0
2017-Dec-02 14:00N 35°25' E 139°43'0 0.0
2017-Dec-02 13:30N 35°25' E 139°43'0 0.0
2017-Dec-02 13:00N 35°25' E 139°43'0 0.1
2017-Dec-02 12:30N 35°25' E 139°43'0 0.0
2017-Dec-02 12:00N 35°25' E 139°43'0 0.0
2017-Dec-02 11:30N 35°25' E 139°43'0 0.0
2017-Dec-02 11:01N 35°25' E 139°43'0 0.0
2017-Dec-02 10:30N 35°25' E 139°43'0 0.0
2017-Dec-02 10:00N 35°25' E 139°43'0 0.0
2017-Dec-02 09:30N 35°25' E 139°43'0 0.0
2017-Dec-02 09:00N 35°25' E 139°43'0 0.0
2017-Dec-02 08:30N 35°25' E 139°43'0 0.0
2017-Dec-02 08:00N 35°25' E 139°43'0 0.0
2017-Dec-02 07:30N 35°25' E 139°43'0 0.0
2017-Dec-02 07:00N 35°25' E 139°43'0 0.0
2017-Dec-02 06:30N 35°25' E 139°43'0 0.0
2017-Dec-02 06:00N 35°25' E 139°43'0 0.0
2017-Dec-02 05:30N 35°25' E 139°43'0 0.0
2017-Dec-02 05:00N 35°25' E 139°43'0 0.0
2017-Dec-02 04:30N 35°25' E 139°43'0 0.0
2017-Dec-02 04:00N 35°25' E 139°43'0 0.0
2017-Dec-02 03:30N 35°25' E 139°43'0 0.0
2017-Dec-02 03:00N 35°25' E 139°43'0 0.1
2017-Dec-02 02:30N 35°25' E 139°43'0 0.0
2017-Dec-02 02:00N 35°25' E 139°43'0 0.0
2017-Dec-02 01:30N 35°25' E 139°43'0 0.0
2017-Dec-02 01:00N 35°25' E 139°43'0 0.0
2017-Dec-02 00:30N 35°25' E 139°43'0 0.1
2017-Dec-02 00:00N 35°25' E 139°43'0 0.0
2017-Dec-01 23:30N 35°25' E 139°43'0 0.1
2017-Dec-01 23:00N 35°25' E 139°43'0 0.0
2017-Dec-01 22:30N 35°25' E 139°43'0 0.1
2017-Dec-01 22:00N 35°25' E 139°43'0 0.1
2017-Dec-01 21:30N 35°25' E 139°43'0 0.0
2017-Dec-01 21:00N 35°25' E 139°43'0 0.0
2017-Dec-01 20:30N 35°25' E 139°43'0 0.0
2017-Dec-01 20:00N 35°25' E 139°43'0 0.0
2017-Dec-01 19:30N 35°25' E 139°43'0 0.0
2017-Dec-01 19:00N 35°25' E 139°43'0 0.0
2017-Dec-01 18:30N 35°25' E 139°43'0 0.0
2017-Dec-01 18:00N 35°25' E 139°43'0 0.0
2017-Dec-01 17:30N 35°25' E 139°43'0 0.0
2017-Dec-01 17:00N 35°25' E 139°43'0 0.0
2017-Dec-01 16:30N 35°25' E 139°43'0 0.1
2017-Dec-01 16:00N 35°25' E 139°43'0 0.1
2017-Dec-01 15:30N 35°25' E 139°43'0 0.0
2017-Dec-01 15:00N 35°25' E 139°43'0 0.0
2017-Dec-01 14:30N 35°25' E 139°43'0 0.0
2017-Dec-01 14:00N 35°25' E 139°43'0 0.1
2017-Dec-01 13:30N 35°25' E 139°43'0 0.1
2017-Dec-01 13:00N 35°25' E 139°43'0 0.1
2017-Dec-01 12:30N 35°25' E 139°43'0 0.0
2017-Dec-01 12:00N 35°25' E 139°43'0 0.0
2017-Dec-01 11:30N 35°25' E 139°43'0 0.0
2017-Dec-01 11:00N 35°25' E 139°43'0 0.0
2017-Dec-01 10:30N 35°25' E 139°43'0 0.0
2017-Dec-01 09:57N 35°25' E 139°43'0 0.1
2017-Dec-01 09:30N 35°25' E 139°43'0 0.0
2017-Dec-01 09:00N 35°25' E 139°43'0 0.0
2017-Dec-01 08:30N 35°25' E 139°43'0 0.0
2017-Dec-01 08:00N 35°25' E 139°43'0 0.1
2017-Dec-01 07:30N 35°25' E 139°43'0 0.0
2017-Dec-01 07:00N 35°25' E 139°43'0 0.1
2017-Dec-01 06:30N 35°25' E 139°43'0 0.0
2017-Dec-01 06:00N 35°25' E 139°43'0 0.2
2017-Dec-01 05:30N 35°25' E 139°43'3 7.0
2017-Dec-01 05:00N 35°22' E 139°43'612.3
2017-Dec-01 04:30N 35°16' E 139°46'611.3
2017-Dec-01 04:00N 35°11' E 139°47'5 9.3
2017-Dec-01 03:30N 35°06' E 139°46'816.5
2017-Dec-01 03:00N 34°58' E 139°41'815.0
2017-Dec-01 02:30N 34°51' E 139°38'815.5
2017-Dec-01 02:00N 34°46' E 139°31'1 2.7
2017-Dec-01 01:29N 34°46' E 139°30'715.7
2017-Dec-01 01:00N 34°38' E 139°28'1121.2
2017-Dec-01 00:31N 34°35' E 139°16'1019.5
2017-Dec-01 00:01N 34°33' E 139°05'918.3
2017-Nov-30 23:31N 34°30' E 138°54'917.6
2017-Nov-30 23:00N 34°28' E 138°44'1017.5
2017-Nov-30 22:27N 34°27' E 138°32'817.3
2017-Nov-30 21:58N 34°27' E 138°22'4 8.9
2017-Nov-30 21:29N 34°27' E 138°17'613.4
2017-Nov-30 21:00N 34°28' E 138°24'917.3
2017-Nov-30 20:28N 34°28' E 138°13'817.1
2017-Nov-30 20:00N 34°28' E 138°03'4315.9
2017-Nov-30 17:17N 34°14' E 137°14'10215.9
2017-Nov-30 10:52N 33°25' E 135°26'916.8
2017-Nov-30 10:21N 33°30' E 135°17'1417.4
2017-Nov-30 09:32N 33°38' E 135°04'117.8
2017-Nov-30 09:28N 33°39' E 135°02'  
Track history (hours):
 
Tides and Currents Weather Stations Pressure Air Temp Water Temp Dewpoint Dewpoint Depression Visibility Wind Speed Wind Dir Waves Ship Positions

Trans Future 10

Last reported at 2017-Dec-09 17:24 UTC. Time now 2017-Dec-12 19:46 UTC.
Position N 23°33' E 118°16'.

Length 166 m; draft 6.5 m.

Type: Cargo ship. MMSI: 356143000.

Date/timePositionNaut miles runAvg speedWind from/ knotsBaromVisibWave heightAir tempDewpointWater temp
2017-Dec-09 17:24N 23°33' E 118°16'1 0.6
2017-Dec-09 14:55N 23°35' E 118°17'15017.3
2017-Dec-09 06:13N 24°55' E 120°36'520.7
2017-Dec-09 06:00N 24°57' E 120°41'1020.6
2017-Dec-09 05:30N 25°03' E 120°50'1020.8
2017-Dec-09 05:01N 25°08' E 120°60'1121.0
2017-Dec-09 04:30N 25°12' E 121°11'816.9
2017-Dec-09 04:00N 25°10' E 121°20'4 6.6
2017-Dec-09 03:28N 25°10' E 121°24'0 0.0
2017-Dec-09 02:58N 25°10' E 121°24'0 0.0
2017-Dec-09 02:25N 25°10' E 121°24'0 0.0
2017-Dec-09 01:58N 25°10' E 121°24'0 0.0
2017-Dec-09 01:28N 25°10' E 121°24'0 0.0
2017-Dec-09 00:58N 25°10' E 121°24'0 0.0
2017-Dec-09 00:28N 25°10' E 121°24'0 0.0
2017-Dec-08 23:58N 25°10' E 121°24'0 0.0
2017-Dec-08 23:22N 25°10' E 121°24'0 0.0
2017-Dec-08 22:40N 25°10' E 121°24'0 0.0
2017-Dec-08 22:28N 25°10' E 121°24'0 0.0
2017-Dec-08 22:00N 25°10' E 121°24'2 3.9
2017-Dec-08 21:30N 25°09' E 121°22'712.3
2017-Dec-08 20:58N 25°14' E 121°16'812.4
2017-Dec-08 20:19N 25°21' E 121°20'517.4
2017-Dec-08 20:00N 25°26' E 121°23'917.4
2017-Dec-08 19:30N 25°32' E 121°29'918.2
2017-Dec-08 19:00N 25°39' E 121°35'64017.9
2017-Dec-07 07:10N 33°38' E 129°44'517.9
2017-Dec-07 06:53N 33°40' E 129°50'718.3
2017-Dec-07 06:30N 33°42' E 129°58'918.1
2017-Dec-07 06:00N 33°44' E 130°08'714.7
2017-Dec-07 05:30N 33°41' E 130°16'612.0
2017-Dec-07 05:01N 33°39' E 130°23'1 2.7
2017-Dec-07 04:29N 33°39' E 130°24'0 0.0
2017-Dec-07 03:59N 33°39' E 130°24'0 0.0
2017-Dec-07 03:29N 33°39' E 130°24'0 0.0
2017-Dec-07 02:59N 33°39' E 130°24'0 0.0
2017-Dec-07 02:29N 33°39' E 130°24'0 0.0
2017-Dec-07 01:59N 33°39' E 130°24'0 0.0
2017-Dec-07 01:29N 33°39' E 130°24'0 0.0
2017-Dec-07 00:59N 33°39' E 130°24'0 0.0
2017-Dec-07 00:29N 33°39' E 130°24'0 0.0
2017-Dec-06 23:56N 33°39' E 130°24'0 0.0
2017-Dec-06 23:29N 33°39' E 130°24'0 0.0
2017-Dec-06 22:59N 33°39' E 130°24'0 0.1
2017-Dec-06 22:26N 33°39' E 130°24'2 4.4
2017-Dec-06 22:01N 33°39' E 130°22'5 9.1
2017-Dec-06 21:31N 33°39' E 130°17'0 0.7
2017-Dec-06 20:56N 33°39' E 130°16'  
2017-Dec-04 10:30N 34°51' E 139°17'815.5
2017-Dec-04 09:58N 34°55' E 139°26'714.9
2017-Dec-04 09:30N 34°58' E 139°33'815.9
2017-Dec-04 09:00N 35°04' E 139°40'815.2
2017-Dec-04 08:30N 35°10' E 139°45'611.2
2017-Dec-04 08:01N 35°16' E 139°46'612.5
2017-Dec-04 07:30N 35°22' E 139°42'611.1
2017-Dec-04 07:00N 35°27' E 139°41'0 0.4
2017-Dec-04 06:27N 35°27' E 139°41'0 0.0
2017-Dec-04 05:58N 35°27' E 139°41'0 0.0
2017-Dec-04 05:31N 35°27' E 139°41'0 0.0
2017-Dec-04 04:58N 35°27' E 139°41'0 0.0
2017-Dec-04 04:27N 35°27' E 139°41'0 0.0
2017-Dec-04 04:01N 35°27' E 139°41'0 0.0
2017-Dec-04 03:30N 35°27' E 139°41'0 0.0
2017-Dec-04 03:00N 35°27' E 139°41'0 0.0
2017-Dec-04 02:31N 35°27' E 139°41'0 0.0
2017-Dec-04 02:00N 35°27' E 139°41'0 0.0
2017-Dec-04 01:31N 35°27' E 139°41'0 0.0
2017-Dec-04 00:58N 35°27' E 139°41'0 0.0
2017-Dec-04 00:30N 35°27' E 139°41'0 0.0
2017-Dec-04 00:00N 35°27' E 139°41'0 0.0
2017-Dec-03 23:30N 35°27' E 139°41'0 0.0
2017-Dec-03 22:57N 35°27' E 139°41'0 0.0
2017-Dec-03 22:31N 35°27' E 139°41'0 1.0
2017-Dec-03 22:00N 35°27' E 139°42'2 3.7
2017-Dec-03 21:30N 35°25' E 139°43'0 0.2
2017-Dec-03 20:58N 35°25' E 139°43'0 0.1
2017-Dec-03 20:28N 35°25' E 139°43'0 0.0
2017-Dec-03 20:01N 35°25' E 139°43'0 0.0
2017-Dec-03 19:30N 35°25' E 139°43'0 0.1
2017-Dec-03 19:00N 35°25' E 139°43'0 0.0
2017-Dec-03 18:28N 35°25' E 139°43'0 0.1
2017-Dec-03 18:00N 35°25' E 139°43'0 0.1
2017-Dec-03 17:30N 35°25' E 139°43'0 0.0
2017-Dec-03 17:01N 35°25' E 139°43'0 0.0
2017-Dec-03 16:31N 35°25' E 139°43'0 0.0
2017-Dec-03 16:00N 35°25' E 139°43'0 0.0
2017-Dec-03 15:31N 35°25' E 139°43'0 0.0
2017-Dec-03 14:58N 35°25' E 139°43'0 0.0
2017-Dec-03 14:31N 35°25' E 139°43'0 0.0
2017-Dec-03 13:58N 35°25' E 139°43'0 0.0
2017-Dec-03 13:28N 35°25' E 139°43'0 0.0
2017-Dec-03 13:01N 35°25' E 139°43'0 0.0
2017-Dec-03 12:30N 35°25' E 139°43'0 0.0
2017-Dec-03 12:01N 35°25' E 139°43'0 0.0
2017-Dec-03 11:30N 35°25' E 139°43'0 0.0
2017-Dec-03 11:01N 35°25' E 139°43'0 0.0
2017-Dec-03 10:31N 35°25' E 139°43'0 0.0
2017-Dec-03 09:58N 35°25' E 139°43'0 0.0
2017-Dec-03 09:27N 35°25' E 139°43'0 0.0
2017-Dec-03 09:00N 35°25' E 139°43'0 0.0
2017-Dec-03 08:31N 35°25' E 139°43'0 0.0
2017-Dec-03 08:00N 35°25' E 139°43'0 0.0
2017-Dec-03 07:31N 35°25' E 139°43'0 0.0
2017-Dec-03 07:00N 35°25' E 139°43'0 0.0
2017-Dec-03 06:28N 35°25' E 139°43'0 0.0
2017-Dec-03 06:00N 35°25' E 139°43'0 0.0
2017-Dec-03 05:30N 35°25' E 139°43'0 0.0
2017-Dec-03 05:00N 35°25' E 139°43'0 0.0
2017-Dec-03 04:30N 35°25' E 139°43'0 0.0
2017-Dec-03 04:00N 35°25' E 139°43'0 0.0
2017-Dec-03 03:30N 35°25' E 139°43'0 0.0
2017-Dec-03 03:00N 35°25' E 139°43'0 0.0
2017-Dec-03 02:30N 35°25' E 139°43'0 0.0
2017-Dec-03 02:01N 35°25' E 139°43'0 0.0
2017-Dec-03 01:30N 35°25' E 139°43'0 0.0
2017-Dec-03 01:00N 35°25' E 139°43'0 0.0
2017-Dec-03 00:31N 35°25' E 139°43'0 0.1
2017-Dec-03 00:00N 35°25' E 139°43'0 0.0
2017-Dec-02 23:31N 35°25' E 139°43'0 0.1
2017-Dec-02 23:00N 35°25' E 139°43'0 0.0
2017-Dec-02 22:30N 35°25' E 139°43'0 0.0
2017-Dec-02 22:00N 35°25' E 139°43'0 0.0
2017-Dec-02 21:31N 35°25' E 139°43'0 0.0
2017-Dec-02 21:00N 35°25' E 139°43'0 0.0
2017-Dec-02 20:30N 35°25' E 139°43'0 0.0
2017-Dec-02 20:00N 35°25' E 139°43'0 0.0
2017-Dec-02 19:30N 35°25' E 139°43'0 0.0
2017-Dec-02 19:00N 35°25' E 139°43'0 0.0
2017-Dec-02 18:30N 35°25' E 139°43'0 0.0
2017-Dec-02 18:01N 35°25' E 139°43'0 0.0
2017-Dec-02 17:30N 35°25' E 139°43'0 0.0
2017-Dec-02 17:00N 35°25' E 139°43'0 0.0
2017-Dec-02 16:30N 35°25' E 139°43'0 0.0
2017-Dec-02 16:01N 35°25' E 139°43'0 0.0
2017-Dec-02 15:30N 35°25' E 139°43'0 0.0
2017-Dec-02 15:00N 35°25' E 139°43'0 0.0
2017-Dec-02 14:30N 35°25' E 139°43'0 0.0
2017-Dec-02 14:00N 35°25' E 139°43'0 0.0
2017-Dec-02 13:30N 35°25' E 139°43'0 0.0
2017-Dec-02 13:00N 35°25' E 139°43'0 0.1
2017-Dec-02 12:30N 35°25' E 139°43'0 0.0
2017-Dec-02 12:00N 35°25' E 139°43'0 0.0
2017-Dec-02 11:30N 35°25' E 139°43'0 0.0
2017-Dec-02 11:01N 35°25' E 139°43'0 0.0
2017-Dec-02 10:30N 35°25' E 139°43'0 0.0
2017-Dec-02 10:00N 35°25' E 139°43'0 0.0
2017-Dec-02 09:30N 35°25' E 139°43'0 0.0
2017-Dec-02 09:00N 35°25' E 139°43'0 0.0
2017-Dec-02 08:30N 35°25' E 139°43'0 0.0
2017-Dec-02 08:00N 35°25' E 139°43'0 0.0
2017-Dec-02 07:30N 35°25' E 139°43'0 0.0
2017-Dec-02 07:00N 35°25' E 139°43'0 0.0
2017-Dec-02 06:30N 35°25' E 139°43'0 0.0
2017-Dec-02 06:00N 35°25' E 139°43'0 0.0
2017-Dec-02 05:30N 35°25' E 139°43'0 0.0
2017-Dec-02 05:00N 35°25' E 139°43'0 0.0
2017-Dec-02 04:30N 35°25' E 139°43'0 0.0
2017-Dec-02 04:00N 35°25' E 139°43'0 0.0
2017-Dec-02 03:30N 35°25' E 139°43'0 0.0
2017-Dec-02 03:00N 35°25' E 139°43'0 0.1
2017-Dec-02 02:30N 35°25' E 139°43'0 0.0
2017-Dec-02 02:00N 35°25' E 139°43'0 0.0
2017-Dec-02 01:30N 35°25' E 139°43'0 0.0
2017-Dec-02 01:00N 35°25' E 139°43'0 0.0
2017-Dec-02 00:30N 35°25' E 139°43'0 0.1
2017-Dec-02 00:00N 35°25' E 139°43'0 0.0
2017-Dec-01 23:30N 35°25' E 139°43'0 0.1
2017-Dec-01 23:00N 35°25' E 139°43'0 0.0
2017-Dec-01 22:30N 35°25' E 139°43'0 0.1
2017-Dec-01 22:00N 35°25' E 139°43'0 0.1
2017-Dec-01 21:30N 35°25' E 139°43'0 0.0
2017-Dec-01 21:00N 35°25' E 139°43'0 0.0
2017-Dec-01 20:30N 35°25' E 139°43'0 0.0
2017-Dec-01 20:00N 35°25' E 139°43'0 0.0
2017-Dec-01 19:30N 35°25' E 139°43'0 0.0
2017-Dec-01 19:00N 35°25' E 139°43'0 0.0
2017-Dec-01 18:30N 35°25' E 139°43'0 0.0
2017-Dec-01 18:00N 35°25' E 139°43'0 0.0
2017-Dec-01 17:30N 35°25' E 139°43'0 0.0
2017-Dec-01 17:00N 35°25' E 139°43'0 0.0
2017-Dec-01 16:30N 35°25' E 139°43'0 0.1
2017-Dec-01 16:00N 35°25' E 139°43'0 0.1
2017-Dec-01 15:30N 35°25' E 139°43'0 0.0
2017-Dec-01 15:00N 35°25' E 139°43'0 0.0
2017-Dec-01 14:30N 35°25' E 139°43'0 0.0
2017-Dec-01 14:00N 35°25' E 139°43'0 0.1
2017-Dec-01 13:30N 35°25' E 139°43'0 0.1
2017-Dec-01 13:00N 35°25' E 139°43'0 0.1
2017-Dec-01 12:30N 35°25' E 139°43'0 0.0
2017-Dec-01 12:00N 35°25' E 139°43'0 0.0
2017-Dec-01 11:30N 35°25' E 139°43'0 0.0
2017-Dec-01 11:00N 35°25' E 139°43'0 0.0
2017-Dec-01 10:30N 35°25' E 139°43'0 0.0
2017-Dec-01 09:57N 35°25' E 139°43'0 0.1
2017-Dec-01 09:30N 35°25' E 139°43'0 0.0
2017-Dec-01 09:00N 35°25' E 139°43'0 0.0
2017-Dec-01 08:30N 35°25' E 139°43'0 0.0
2017-Dec-01 08:00N 35°25' E 139°43'0 0.1
2017-Dec-01 07:30N 35°25' E 139°43'0 0.0
2017-Dec-01 07:00N 35°25' E 139°43'0 0.1
2017-Dec-01 06:30N 35°25' E 139°43'0 0.0
2017-Dec-01 06:00N 35°25' E 139°43'0 0.2
2017-Dec-01 05:30N 35°25' E 139°43'3 7.0
2017-Dec-01 05:00N 35°22' E 139°43'612.3
2017-Dec-01 04:30N 35°16' E 139°46'611.3
2017-Dec-01 04:00N 35°11' E 139°47'5 9.3
2017-Dec-01 03:30N 35°06' E 139°46'816.5
2017-Dec-01 03:00N 34°58' E 139°41'815.0
2017-Dec-01 02:30N 34°51' E 139°38'815.5
2017-Dec-01 02:00N 34°46' E 139°31'1 2.7
2017-Dec-01 01:29N 34°46' E 139°30'715.7
2017-Dec-01 01:00N 34°38' E 139°28'1121.2
2017-Dec-01 00:31N 34°35' E 139°16'1019.5
2017-Dec-01 00:01N 34°33' E 139°05'918.3
2017-Nov-30 23:31N 34°30' E 138°54'917.6
2017-Nov-30 23:00N 34°28' E 138°44'1017.5
2017-Nov-30 22:27N 34°27' E 138°32'817.3
2017-Nov-30 21:58N 34°27' E 138°22'4 8.9
2017-Nov-30 21:29N 34°27' E 138°17'613.4
2017-Nov-30 21:00N 34°28' E 138°24'917.3
2017-Nov-30 20:28N 34°28' E 138°13'817.1
2017-Nov-30 20:00N 34°28' E 138°03'4315.9
2017-Nov-30 17:17N 34°14' E 137°14'10215.9
2017-Nov-30 10:52N 33°25' E 135°26'916.8
2017-Nov-30 10:21N 33°30' E 135°17'1417.4
2017-Nov-30 09:32N 33°38' E 135°04'117.8
2017-Nov-30 09:28N 33°39' E 135°02'  

Dump ship's entire track history